sensor_id;sensor_type;location;lat;lon;timestamp;P1;durP1;ratioP1;P2;durP2;ratioP2
39176;SDS011;24904;52.208;21.192;2023-08-21T00:01:42;22.20;;;19.00;;
39176;SDS011;24904;52.208;21.192;2023-08-21T00:06:45;22.10;;;19.80;;
39176;SDS011;24904;52.208;21.192;2023-08-21T00:11:48;24.40;;;19.80;;
39176;SDS011;24904;52.208;21.192;2023-08-21T00:16:51;21.70;;;19.40;;
39176;SDS011;24904;52.208;21.192;2023-08-21T00:21:54;24.90;;;19.70;;
39176;SDS011;24904;52.208;21.192;2023-08-21T00:26:57;24.00;;;20.20;;
39176;SDS011;24904;52.208;21.192;2023-08-21T00:32:00;22.40;;;20.20;;
39176;SDS011;24904;52.208;21.192;2023-08-21T00:37:03;22.20;;;19.30;;
39176;SDS011;24904;52.208;21.192;2023-08-21T00:42:06;22.50;;;19.80;;
39176;SDS011;24904;52.208;21.192;2023-08-21T00:47:10;24.30;;;19.70;;
39176;SDS011;24904;52.208;21.192;2023-08-21T00:52:13;25.20;;;19.50;;
39176;SDS011;24904;52.208;21.192;2023-08-21T00:57:17;22.30;;;20.00;;
39176;SDS011;24904;52.208;21.192;2023-08-21T01:02:22;23.60;;;20.20;;
39176;SDS011;24904;52.208;21.192;2023-08-21T01:07:25;26.90;;;21.40;;
39176;SDS011;24904;52.208;21.192;2023-08-21T01:12:32;25.60;;;22.90;;
39176;SDS011;24904;52.208;21.192;2023-08-21T01:17:38;23.40;;;20.80;;
39176;SDS011;24904;52.208;21.192;2023-08-21T01:22:43;23.30;;;20.60;;
39176;SDS011;24904;52.208;21.192;2023-08-21T01:27:47;23.70;;;20.70;;
39176;SDS011;24904;52.208;21.192;2023-08-21T01:32:55;25.30;;;20.40;;
39176;SDS011;24904;52.208;21.192;2023-08-21T01:38:01;26.30;;;20.60;;
39176;SDS011;24904;52.208;21.192;2023-08-21T01:43:05;23.10;;;20.50;;
39176;SDS011;24904;52.208;21.192;2023-08-21T01:48:08;23.20;;;20.70;;
39176;SDS011;24904;52.208;21.192;2023-08-21T01:53:11;25.40;;;20.40;;
39176;SDS011;24904;52.208;21.192;2023-08-21T01:58:14;25.60;;;21.60;;
39176;SDS011;24904;52.208;21.192;2023-08-21T02:03:17;23.00;;;20.60;;
39176;SDS011;24904;52.208;21.192;2023-08-21T02:08:20;23.60;;;20.70;;
39176;SDS011;24904;52.208;21.192;2023-08-21T02:13:25;22.90;;;20.60;;
39176;SDS011;24904;52.208;21.192;2023-08-21T02:18:28;24.10;;;21.00;;
39176;SDS011;24904;52.208;21.192;2023-08-21T02:23:32;23.00;;;19.80;;
39176;SDS011;24904;52.208;21.192;2023-08-21T02:28:35;26.10;;;20.80;;
39176;SDS011;24904;52.208;21.192;2023-08-21T02:33:41;22.70;;;19.20;;
39176;SDS011;24904;52.208;21.192;2023-08-21T02:38:44;21.50;;;19.20;;
39176;SDS011;24904;52.208;21.192;2023-08-21T02:43:47;21.10;;;18.80;;
39176;SDS011;24904;52.208;21.192;2023-08-21T02:48:50;21.80;;;19.50;;
39176;SDS011;24904;52.208;21.192;2023-08-21T02:53:53;23.00;;;20.60;;
39176;SDS011;24904;52.208;21.192;2023-08-21T02:58:56;21.70;;;19.50;;
39176;SDS011;24904;52.208;21.192;2023-08-21T03:03:59;24.10;;;21.10;;
39176;SDS011;24904;52.208;21.192;2023-08-21T03:09:02;21.10;;;18.70;;
39176;SDS011;24904;52.208;21.192;2023-08-21T03:14:05;24.40;;;20.40;;
39176;SDS011;24904;52.208;21.192;2023-08-21T03:19:08;21.70;;;19.40;;
39176;SDS011;24904;52.208;21.192;2023-08-21T03:24:11;22.50;;;19.00;;
39176;SDS011;24904;52.208;21.192;2023-08-21T03:29:15;21.00;;;18.30;;
39176;SDS011;24904;52.208;21.192;2023-08-21T03:34:18;23.90;;;19.40;;
39176;SDS011;24904;52.208;21.192;2023-08-21T03:39:21;24.80;;;20.30;;
39176;SDS011;24904;52.208;21.192;2023-08-21T03:44:25;21.90;;;19.50;;
39176;SDS011;24904;52.208;21.192;2023-08-21T03:49:28;21.70;;;19.20;;
39176;SDS011;24904;52.208;21.192;2023-08-21T03:54:31;29.60;;;18.80;;
39176;SDS011;24904;52.208;21.192;2023-08-21T03:59:34;22.90;;;19.20;;
39176;SDS011;24904;52.208;21.192;2023-08-21T04:04:37;21.30;;;19.10;;
39176;SDS011;24904;52.208;21.192;2023-08-21T04:09:40;23.30;;;18.80;;
39176;SDS011;24904;52.208;21.192;2023-08-21T04:14:43;21.80;;;19.50;;
39176;SDS011;24904;52.208;21.192;2023-08-21T04:19:46;20.10;;;18.00;;
39176;SDS011;24904;52.208;21.192;2023-08-21T04:24:49;24.90;;;18.80;;
39176;SDS011;24904;52.208;21.192;2023-08-21T04:29:52;20.90;;;18.80;;
39176;SDS011;24904;52.208;21.192;2023-08-21T04:34:55;23.90;;;18.50;;
39176;SDS011;24904;52.208;21.192;2023-08-21T04:39:59;20.10;;;18.00;;
39176;SDS011;24904;52.208;21.192;2023-08-21T04:45:02;21.20;;;16.90;;
39176;SDS011;24904;52.208;21.192;2023-08-21T04:50:08;22.20;;;19.10;;
39176;SDS011;24904;52.208;21.192;2023-08-21T04:55:14;20.80;;;18.40;;
39176;SDS011;24904;52.208;21.192;2023-08-21T05:00:17;22.50;;;19.20;;
39176;SDS011;24904;52.208;21.192;2023-08-21T05:05:20;22.50;;;20.20;;
39176;SDS011;24904;52.208;21.192;2023-08-21T05:16:29;21.20;;;17.40;;
39176;SDS011;24904;52.208;21.192;2023-08-21T05:21:32;22.00;;;18.10;;
39176;SDS011;24904;52.208;21.192;2023-08-21T05:26:36;20.00;;;17.80;;
39176;SDS011;24904;52.208;21.192;2023-08-21T05:31:39;23.10;;;18.40;;
39176;SDS011;24904;52.208;21.192;2023-08-21T05:36:42;19.40;;;16.90;;
39176;SDS011;24904;52.208;21.192;2023-08-21T05:41:45;25.60;;;18.80;;
39176;SDS011;24904;52.208;21.192;2023-08-21T05:46:49;24.70;;;19.70;;
39176;SDS011;24904;52.208;21.192;2023-08-21T05:51:52;20.20;;;18.00;;
39176;SDS011;24904;52.208;21.192;2023-08-21T05:56:55;30.00;;;20.20;;
39176;SDS011;24904;52.208;21.192;2023-08-21T06:01:58;25.90;;;18.70;;
39176;SDS011;24904;52.208;21.192;2023-08-21T06:07:02;22.30;;;17.60;;
39176;SDS011;24904;52.208;21.192;2023-08-21T06:12:06;24.80;;;18.80;;
39176;SDS011;24904;52.208;21.192;2023-08-21T06:17:10;25.50;;;19.70;;
39176;SDS011;24904;52.208;21.192;2023-08-21T06:22:13;24.30;;;17.20;;
39176;SDS011;24904;52.208;21.192;2023-08-21T06:27:16;23.60;;;17.10;;
39176;SDS011;24904;52.208;21.192;2023-08-21T06:32:20;22.00;;;18.40;;
39176;SDS011;24904;52.208;21.192;2023-08-21T06:37:23;24.10;;;18.40;;
39176;SDS011;24904;52.208;21.192;2023-08-21T06:42:26;21.90;;;17.10;;
39176;SDS011;24904;52.208;21.192;2023-08-21T06:47:30;24.40;;;16.50;;
39176;SDS011;24904;52.208;21.192;2023-08-21T06:52:34;23.40;;;17.80;;
39176;SDS011;24904;52.208;21.192;2023-08-21T06:57:37;23.20;;;16.90;;
39176;SDS011;24904;52.208;21.192;2023-08-21T07:02:40;26.20;;;17.70;;
39176;SDS011;24904;52.208;21.192;2023-08-21T07:07:43;21.10;;;16.50;;
39176;SDS011;24904;52.208;21.192;2023-08-21T07:12:46;22.00;;;17.90;;
39176;SDS011;24904;52.208;21.192;2023-08-21T07:17:49;22.70;;;17.70;;
39176;SDS011;24904;52.208;21.192;2023-08-21T07:22:52;22.40;;;18.90;;
39176;SDS011;24904;52.208;21.192;2023-08-21T07:27:55;24.60;;;18.50;;
39176;SDS011;24904;52.208;21.192;2023-08-21T07:32:58;22.60;;;17.80;;
39176;SDS011;24904;52.208;21.192;2023-08-21T07:38:01;21.10;;;17.50;;
39176;SDS011;24904;52.208;21.192;2023-08-21T07:43:04;18.80;;;16.90;;
39176;SDS011;24904;52.208;21.192;2023-08-21T07:54:29;25.00;;;19.20;;
39176;SDS011;24904;52.208;21.192;2023-08-21T08:04:56;27.40;;;18.60;;
39176;SDS011;24904;52.208;21.192;2023-08-21T08:09:59;22.50;;;19.20;;
39176;SDS011;24904;52.208;21.192;2023-08-21T08:15:02;27.60;;;19.20;;
39176;SDS011;24904;52.208;21.192;2023-08-21T08:20:06;32.50;;;26.40;;
39176;SDS011;24904;52.208;21.192;2023-08-21T08:25:10;30.70;;;19.80;;
39176;SDS011;24904;52.208;21.192;2023-08-21T08:30:15;24.30;;;17.50;;
39176;SDS011;24904;52.208;21.192;2023-08-21T08:35:18;23.90;;;18.20;;
39176;SDS011;24904;52.208;21.192;2023-08-21T08:40:21;21.00;;;16.70;;
39176;SDS011;24904;52.208;21.192;2023-08-21T08:45:27;19.60;;;15.50;;
39176;SDS011;24904;52.208;21.192;2023-08-21T08:50:32;18.80;;;14.50;;
39176;SDS011;24904;52.208;21.192;2023-08-21T08:55:36;18.90;;;15.20;;
39176;SDS011;24904;52.208;21.192;2023-08-21T09:00:39;15.70;;;13.70;;
39176;SDS011;24904;52.208;21.192;2023-08-21T09:05:42;17.10;;;12.80;;
39176;SDS011;24904;52.208;21.192;2023-08-21T09:10:45;16.00;;;13.00;;
39176;SDS011;24904;52.208;21.192;2023-08-21T09:15:49;21.60;;;12.60;;
39176;SDS011;24904;52.208;21.192;2023-08-21T09:20:56;14.90;;;12.30;;
39176;SDS011;24904;52.208;21.192;2023-08-21T09:25:59;14.80;;;12.10;;
39176;SDS011;24904;52.208;21.192;2023-08-21T09:31:04;14.70;;;10.50;;
39176;SDS011;24904;52.208;21.192;2023-08-21T09:36:08;18.50;;;11.10;;
39176;SDS011;24904;52.208;21.192;2023-08-21T09:41:12;14.90;;;10.90;;
39176;SDS011;24904;52.208;21.192;2023-08-21T09:46:15;12.20;;;9.20;;
39176;SDS011;24904;52.208;21.192;2023-08-21T09:51:20;13.00;;;9.10;;
39176;SDS011;24904;52.208;21.192;2023-08-21T09:56:23;11.10;;;8.80;;
39176;SDS011;24904;52.208;21.192;2023-08-21T10:01:27;14.40;;;9.50;;
39176;SDS011;24904;52.208;21.192;2023-08-21T10:06:30;11.70;;;8.50;;
39176;SDS011;24904;52.208;21.192;2023-08-21T10:11:34;12.20;;;8.00;;
39176;SDS011;24904;52.208;21.192;2023-08-21T10:16:38;10.50;;;5.70;;
39176;SDS011;24904;52.208;21.192;2023-08-21T10:21:45;10.10;;;6.30;;
39176;SDS011;24904;52.208;21.192;2023-08-21T10:26:51;10.80;;;6.20;;
39176;SDS011;24904;52.208;21.192;2023-08-21T10:31:59;11.90;;;6.20;;
39176;SDS011;24904;52.208;21.192;2023-08-21T10:37:06;6.50;;;5.70;;
39176;SDS011;24904;52.208;21.192;2023-08-21T10:42:14;8.30;;;5.70;;
39176;SDS011;24904;52.208;21.192;2023-08-21T10:47:20;6.00;;;4.80;;
39176;SDS011;24904;52.208;21.192;2023-08-21T10:52:26;8.10;;;4.00;;
39176;SDS011;24904;52.208;21.192;2023-08-21T10:57:32;6.10;;;3.60;;
39176;SDS011;24904;52.208;21.192;2023-08-21T11:02:37;5.00;;;3.40;;
39176;SDS011;24904;52.208;21.192;2023-08-21T11:07:43;5.00;;;3.80;;
39176;SDS011;24904;52.208;21.192;2023-08-21T11:23:31;5.90;;;3.30;;
39176;SDS011;24904;52.208;21.192;2023-08-21T11:28:35;5.20;;;3.80;;
39176;SDS011;24904;52.208;21.192;2023-08-21T11:33:39;6.30;;;3.90;;
39176;SDS011;24904;52.208;21.192;2023-08-21T11:38:42;6.90;;;4.30;;
39176;SDS011;24904;52.208;21.192;2023-08-21T11:44:02;9.30;;;4.10;;
39176;SDS011;24904;52.208;21.192;2023-08-21T11:49:05;4.70;;;3.80;;
39176;SDS011;24904;52.208;21.192;2023-08-21T11:54:08;4.90;;;3.70;;
39176;SDS011;24904;52.208;21.192;2023-08-21T11:59:20;4.70;;;3.60;;
39176;SDS011;24904;52.208;21.192;2023-08-21T12:04:24;7.40;;;3.80;;
39176;SDS011;24904;52.208;21.192;2023-08-21T12:09:27;5.20;;;3.40;;
39176;SDS011;24904;52.208;21.192;2023-08-21T12:14:30;3.70;;;3.00;;
39176;SDS011;24904;52.208;21.192;2023-08-21T12:19:33;5.20;;;3.30;;
39176;SDS011;24904;52.208;21.192;2023-08-21T12:24:37;6.20;;;2.80;;
39176;SDS011;24904;52.208;21.192;2023-08-21T12:29:41;9.70;;;3.20;;
39176;SDS011;24904;52.208;21.192;2023-08-21T12:34:44;6.20;;;2.60;;
39176;SDS011;24904;52.208;21.192;2023-08-21T12:39:47;7.60;;;3.20;;
39176;SDS011;24904;52.208;21.192;2023-08-21T12:44:50;4.30;;;2.80;;
39176;SDS011;24904;52.208;21.192;2023-08-21T12:49:53;7.40;;;3.40;;
39176;SDS011;24904;52.208;21.192;2023-08-21T12:54:56;8.80;;;3.30;;
39176;SDS011;24904;52.208;21.192;2023-08-21T13:00:00;10.60;;;3.50;;
39176;SDS011;24904;52.208;21.192;2023-08-21T13:05:03;5.20;;;3.30;;
39176;SDS011;24904;52.208;21.192;2023-08-21T13:10:08;8.50;;;3.00;;
39176;SDS011;24904;52.208;21.192;2023-08-21T13:15:12;3.70;;;2.80;;
39176;SDS011;24904;52.208;21.192;2023-08-21T13:20:15;4.70;;;2.60;;
39176;SDS011;24904;52.208;21.192;2023-08-21T13:25:18;4.20;;;2.60;;
39176;SDS011;24904;52.208;21.192;2023-08-21T13:30:22;7.10;;;2.80;;
39176;SDS011;24904;52.208;21.192;2023-08-21T13:35:25;6.80;;;2.60;;
39176;SDS011;24904;52.208;21.192;2023-08-21T13:40:28;3.60;;;2.30;;
39176;SDS011;24904;52.208;21.192;2023-08-21T13:45:31;6.50;;;2.50;;
39176;SDS011;24904;52.208;21.192;2023-08-21T13:50:34;6.20;;;2.10;;
39176;SDS011;24904;52.208;21.192;2023-08-21T13:55:37;4.10;;;1.90;;
39176;SDS011;24904;52.208;21.192;2023-08-21T14:00:40;4.00;;;2.30;;
39176;SDS011;24904;52.208;21.192;2023-08-21T14:05:43;3.90;;;1.60;;
39176;SDS011;24904;52.208;21.192;2023-08-21T14:19:32;6.10;;;1.80;;
39176;SDS011;24904;52.208;21.192;2023-08-21T14:24:35;6.90;;;1.70;;
39176;SDS011;24904;52.208;21.192;2023-08-21T14:29:37;5.00;;;1.80;;
39176;SDS011;24904;52.208;21.192;2023-08-21T14:34:40;4.20;;;2.00;;
39176;SDS011;24904;52.208;21.192;2023-08-21T14:39:45;4.00;;;1.60;;
39176;SDS011;24904;52.208;21.192;2023-08-21T14:44:48;7.70;;;2.10;;
39176;SDS011;24904;52.208;21.192;2023-08-21T14:49:51;5.60;;;1.80;;
39176;SDS011;24904;52.208;21.192;2023-08-21T14:54:54;3.80;;;1.80;;
39176;SDS011;24904;52.208;21.192;2023-08-21T14:59:59;4.80;;;1.80;;
39176;SDS011;24904;52.208;21.192;2023-08-21T15:05:02;3.20;;;1.90;;
39176;SDS011;24904;52.208;21.192;2023-08-21T15:10:07;5.30;;;1.80;;
39176;SDS011;24904;52.208;21.192;2023-08-21T15:15:11;3.90;;;1.60;;
39176;SDS011;24904;52.208;21.192;2023-08-21T15:20:14;2.70;;;1.90;;
39176;SDS011;24904;52.208;21.192;2023-08-21T15:25:17;4.20;;;2.00;;
39176;SDS011;24904;52.208;21.192;2023-08-21T15:30:21;3.40;;;1.70;;
39176;SDS011;24904;52.208;21.192;2023-08-21T15:35:24;6.90;;;1.70;;
39176;SDS011;24904;52.208;21.192;2023-08-21T15:40:27;8.30;;;1.60;;
39176;SDS011;24904;52.208;21.192;2023-08-21T15:45:30;8.40;;;1.70;;
39176;SDS011;24904;52.208;21.192;2023-08-21T15:50:33;6.00;;;1.80;;
39176;SDS011;24904;52.208;21.192;2023-08-21T15:55:36;3.80;;;1.60;;
39176;SDS011;24904;52.208;21.192;2023-08-21T16:00:39;3.60;;;1.70;;
39176;SDS011;24904;52.208;21.192;2023-08-21T16:05:42;6.30;;;2.00;;
39176;SDS011;24904;52.208;21.192;2023-08-21T16:10:45;6.10;;;1.80;;
39176;SDS011;24904;52.208;21.192;2023-08-21T16:15:48;10.60;;;2.10;;
39176;SDS011;24904;52.208;21.192;2023-08-21T16:20:51;4.90;;;1.80;;
39176;SDS011;24904;52.208;21.192;2023-08-21T16:25:54;6.50;;;1.70;;
39176;SDS011;24904;52.208;21.192;2023-08-21T16:30:57;4.60;;;2.00;;
39176;SDS011;24904;52.208;21.192;2023-08-21T16:36:00;6.30;;;2.10;;
39176;SDS011;24904;52.208;21.192;2023-08-21T16:41:04;11.50;;;2.00;;
39176;SDS011;24904;52.208;21.192;2023-08-21T16:46:07;4.20;;;1.80;;
39176;SDS011;24904;52.208;21.192;2023-08-21T16:51:11;5.00;;;1.80;;
39176;SDS011;24904;52.208;21.192;2023-08-21T16:56:14;3.60;;;1.80;;
39176;SDS011;24904;52.208;21.192;2023-08-21T17:01:18;7.80;;;2.20;;
39176;SDS011;24904;52.208;21.192;2023-08-21T17:06:21;5.60;;;1.80;;
39176;SDS011;24904;52.208;21.192;2023-08-21T17:11:24;2.60;;;1.50;;
39176;SDS011;24904;52.208;21.192;2023-08-21T17:16:27;3.30;;;1.70;;
39176;SDS011;24904;52.208;21.192;2023-08-21T17:21:30;4.00;;;1.90;;
39176;SDS011;24904;52.208;21.192;2023-08-21T17:26:33;5.20;;;1.70;;
39176;SDS011;24904;52.208;21.192;2023-08-21T17:31:36;13.60;;;2.30;;
39176;SDS011;24904;52.208;21.192;2023-08-21T17:36:39;6.20;;;2.30;;
39176;SDS011;24904;52.208;21.192;2023-08-21T17:41:43;6.60;;;2.20;;
39176;SDS011;24904;52.208;21.192;2023-08-21T17:46:46;7.30;;;2.10;;
39176;SDS011;24904;52.208;21.192;2023-08-21T17:51:49;5.50;;;2.50;;
39176;SDS011;24904;52.208;21.192;2023-08-21T17:56:52;5.70;;;2.50;;
39176;SDS011;24904;52.208;21.192;2023-08-21T18:01:55;3.60;;;2.00;;
39176;SDS011;24904;52.208;21.192;2023-08-21T18:07:00;5.50;;;2.30;;
39176;SDS011;24904;52.208;21.192;2023-08-21T18:12:03;6.40;;;2.70;;
39176;SDS011;24904;52.208;21.192;2023-08-21T18:17:06;5.50;;;2.10;;
39176;SDS011;24904;52.208;21.192;2023-08-21T18:22:14;7.20;;;2.00;;
39176;SDS011;24904;52.208;21.192;2023-08-21T18:27:17;11.30;;;2.40;;
39176;SDS011;24904;52.208;21.192;2023-08-21T18:32:20;9.50;;;2.60;;
39176;SDS011;24904;52.208;21.192;2023-08-21T18:37:23;4.70;;;2.40;;
39176;SDS011;24904;52.208;21.192;2023-08-21T18:42:26;5.20;;;3.10;;
39176;SDS011;24904;52.208;21.192;2023-08-21T18:47:29;3.80;;;2.50;;
39176;SDS011;24904;52.208;21.192;2023-08-21T18:52:32;5.30;;;2.50;;
39176;SDS011;24904;52.208;21.192;2023-08-21T18:57:35;9.30;;;2.60;;
39176;SDS011;24904;52.208;21.192;2023-08-21T19:02:39;3.80;;;2.60;;
39176;SDS011;24904;52.208;21.192;2023-08-21T19:07:42;5.50;;;2.70;;
39176;SDS011;24904;52.208;21.192;2023-08-21T19:12:45;6.00;;;3.30;;
39176;SDS011;24904;52.208;21.192;2023-08-21T19:17:48;4.60;;;2.90;;
39176;SDS011;24904;52.208;21.192;2023-08-21T19:22:51;8.30;;;4.10;;
39176;SDS011;24904;52.208;21.192;2023-08-21T19:27:54;4.40;;;2.70;;
39176;SDS011;24904;52.208;21.192;2023-08-21T19:32:57;5.40;;;2.80;;
39176;SDS011;24904;52.208;21.192;2023-08-21T19:38:00;5.20;;;2.80;;
39176;SDS011;24904;52.208;21.192;2023-08-21T19:49:34;5.70;;;3.10;;
39176;SDS011;24904;52.208;21.192;2023-08-21T19:54:37;6.30;;;3.10;;
39176;SDS011;24904;52.208;21.192;2023-08-21T19:59:40;6.10;;;3.30;;
39176;SDS011;24904;52.208;21.192;2023-08-21T20:04:43;5.90;;;3.30;;
39176;SDS011;24904;52.208;21.192;2023-08-21T20:09:46;5.90;;;3.50;;
39176;SDS011;24904;52.208;21.192;2023-08-21T20:14:49;7.20;;;2.90;;
39176;SDS011;24904;52.208;21.192;2023-08-21T20:19:52;7.50;;;2.90;;
39176;SDS011;24904;52.208;21.192;2023-08-21T20:24:55;7.10;;;3.00;;
39176;SDS011;24904;52.208;21.192;2023-08-21T20:29:59;8.10;;;3.40;;
39176;SDS011;24904;52.208;21.192;2023-08-21T20:35:02;5.90;;;3.20;;
39176;SDS011;24904;52.208;21.192;2023-08-21T20:40:07;5.30;;;3.40;;
39176;SDS011;24904;52.208;21.192;2023-08-21T20:45:12;7.30;;;3.60;;
39176;SDS011;24904;52.208;21.192;2023-08-21T20:50:15;5.40;;;3.20;;
39176;SDS011;24904;52.208;21.192;2023-08-21T20:55:18;6.20;;;2.90;;
39176;SDS011;24904;52.208;21.192;2023-08-21T21:00:22;6.90;;;3.40;;
39176;SDS011;24904;52.208;21.192;2023-08-21T21:05:25;6.10;;;3.30;;
39176;SDS011;24904;52.208;21.192;2023-08-21T21:10:28;7.60;;;3.20;;
39176;SDS011;24904;52.208;21.192;2023-08-21T21:15:31;6.00;;;3.20;;
39176;SDS011;24904;52.208;21.192;2023-08-21T21:20:35;7.40;;;3.50;;
39176;SDS011;24904;52.208;21.192;2023-08-21T21:25:38;5.90;;;3.30;;
39176;SDS011;24904;52.208;21.192;2023-08-21T21:30:41;6.30;;;3.70;;
39176;SDS011;24904;52.208;21.192;2023-08-21T21:35:44;6.40;;;3.50;;
39176;SDS011;24904;52.208;21.192;2023-08-21T21:40:47;6.40;;;3.20;;
39176;SDS011;24904;52.208;21.192;2023-08-21T21:45:54;8.10;;;3.80;;
39176;SDS011;24904;52.208;21.192;2023-08-21T21:50:58;6.10;;;3.20;;
39176;SDS011;24904;52.208;21.192;2023-08-21T21:56:01;8.70;;;4.00;;
39176;SDS011;24904;52.208;21.192;2023-08-21T22:01:05;8.80;;;4.00;;
39176;SDS011;24904;52.208;21.192;2023-08-21T22:06:08;8.80;;;4.10;;
39176;SDS011;24904;52.208;21.192;2023-08-21T22:11:13;12.50;;;4.00;;
39176;SDS011;24904;52.208;21.192;2023-08-21T22:16:18;6.90;;;4.00;;
39176;SDS011;24904;52.208;21.192;2023-08-21T22:21:22;7.60;;;4.20;;
39176;SDS011;24904;52.208;21.192;2023-08-21T22:26:25;6.90;;;4.50;;
39176;SDS011;24904;52.208;21.192;2023-08-21T22:31:28;7.80;;;4.30;;
39176;SDS011;24904;52.208;21.192;2023-08-21T22:36:31;8.40;;;4.30;;
39176;SDS011;24904;52.208;21.192;2023-08-21T22:41:34;6.60;;;4.30;;
39176;SDS011;24904;52.208;21.192;2023-08-21T22:46:37;13.60;;;4.40;;
39176;SDS011;24904;52.208;21.192;2023-08-21T22:51:40;9.50;;;4.30;;
39176;SDS011;24904;52.208;21.192;2023-08-21T22:56:43;7.80;;;4.10;;
39176;SDS011;24904;52.208;21.192;2023-08-21T23:01:46;7.20;;;3.90;;
39176;SDS011;24904;52.208;21.192;2023-08-21T23:06:49;7.00;;;4.00;;
39176;SDS011;24904;52.208;21.192;2023-08-21T23:11:52;6.20;;;4.10;;
39176;SDS011;24904;52.208;21.192;2023-08-21T23:16:55;8.40;;;4.50;;
39176;SDS011;24904;52.208;21.192;2023-08-21T23:21:59;4.80;;;3.30;;
39176;SDS011;24904;52.208;21.192;2023-08-21T23:27:02;7.20;;;3.80;;
39176;SDS011;24904;52.208;21.192;2023-08-21T23:32:07;5.80;;;3.80;;
39176;SDS011;24904;52.208;21.192;2023-08-21T23:37:10;10.30;;;4.50;;
39176;SDS011;24904;52.208;21.192;2023-08-21T23:42:13;11.60;;;4.90;;
39176;SDS011;24904;52.208;21.192;2023-08-21T23:47:16;5.90;;;4.00;;
39176;SDS011;24904;52.208;21.192;2023-08-21T23:52:19;6.80;;;3.90;;
39176;SDS011;24904;52.208;21.192;2023-08-21T23:57:22;7.60;;;4.20;;
